Time;durP1;ratioP1;P1;durP2;ratioP2;P2;SDS_P1;SDS_P2;PMS_P1;PMS_P2;Temp;Humidity;BMP_temperature;BMP_pressure;BME280_temperature;BME280_humidity;BME280_pressure;Samples;Min_cycle;Max_cycle;Signal;HPM_P1;HPM_P2
2022/07/27 00:01:06;;;;;;;4.33;2.03;;;;;;;24.52;39.00;97398.47;5044632;28;20175;-70
2022/07/27 00:03:32;;;;;;;2.60;2.10;;;;;;;24.52;39.15;97392.31;5057595;28;20478;-67
2022/07/27 00:05:57;;;;;;;2.80;1.70;;;;;;;24.46;39.39;97391.41;5064165;28;20262;-68
2022/07/27 00:08:23;;;;;;;2.37;2.17;;;;;;;24.47;39.54;97397.56;5067781;28;20208;-69
2022/07/27 00:10:49;;;;;;;3.60;2.33;;;;;;;24.39;39.53;97394.22;5057463;28;20708;-67
2022/07/27 00:13:15;;;;;;;2.13;1.90;;;;;;;24.40;39.53;97389.66;5068319;28;20240;-68
2022/07/27 00:15:41;;;;;;;2.40;2.20;;;;;;;24.37;39.26;97393.63;5062302;28;20465;-68
2022/07/27 00:18:06;;;;;;;5.20;1.90;;;;;;;24.45;39.68;97399.66;5073758;28;20221;-69
2022/07/27 00:20:32;;;;;;;2.07;1.87;;;;;;;24.43;39.40;97402.56;5061190;28;20175;-69
2022/07/27 00:22:58;;;;;;;3.80;2.03;;;;;;;24.36;39.77;97392.00;5062956;28;20181;-68
2022/07/27 00:25:27;;;;;;;3.50;2.03;;;;;;;24.38;39.68;97389.91;5062640;28;20190;-68
2022/07/27 00:27:55;;;;;;;5.67;2.10;;;;;;;24.44;39.63;97396.19;5061108;28;20947;-69
2022/07/27 00:30:21;;;;;;;2.13;1.93;;;;;;;24.42;39.82;97400.16;5063177;28;20432;-69
2022/07/27 00:32:46;;;;;;;2.93;2.40;;;;;;;24.34;39.92;97404.81;5064851;28;20487;-68
2022/07/27 00:35:12;;;;;;;7.50;2.23;;;;;;;24.33;39.69;97400.50;5069583;28;20213;-68
2022/07/27 00:37:38;;;;;;;4.17;2.23;;;;;;;24.33;39.95;97400.50;5053909;28;20194;-68
2022/07/27 00:40:05;;;;;;;2.93;1.97;;;;;;;24.39;39.84;97396.06;5038872;28;20183;-68
2022/07/27 00:42:31;;;;;;;1.90;1.80;;;;;;;24.39;39.70;97396.88;5051304;28;20775;-69
2022/07/27 00:44:56;;;;;;;5.50;2.30;;;;;;;24.35;40.37;97398.41;5061313;28;20426;-68
2022/07/27 00:47:23;;;;;;;3.50;2.13;;;;;;;24.37;40.39;97393.63;5062230;28;20233;-69
2022/07/27 00:49:48;;;;;;;1.93;1.73;;;;;;;24.38;40.52;97397.94;5058303;28;20175;-67
2022/07/27 00:52:14;;;;;;;2.30;1.83;;;;;;;24.39;40.31;97399.56;5065699;28;20519;-69
2022/07/27 00:54:42;;;;;;;2.67;2.00;;;;;;;24.43;40.32;97393.75;5054698;28;20187;-68
2022/07/27 00:57:11;;;;;;;2.00;1.90;;;;;;;24.42;40.46;97397.47;5063266;28;20534;-68
2022/07/27 00:59:37;;;;;;;3.93;2.20;;;;;;;24.42;40.03;97392.91;5053032;28;20426;-69
2022/07/27 01:02:04;;;;;;;4.43;2.10;;;;;;;24.43;40.13;97396.44;5040728;28;20424;-69
2022/07/27 01:04:29;;;;;;;7.50;2.33;;;;;;;24.48;40.12;97393.81;5069213;28;20191;-68
2022/07/27 01:06:55;;;;;;;6.23;1.90;;;;;;;24.52;40.03;97389.63;5053357;28;20483;-68
2022/07/27 01:12:06;;;;;;;1.87;1.60;;;;;;;24.36;41.13;97380.50;5056196;28;20685;-69
2022/07/27 01:14:31;;;;;;;2.33;2.10;;;;;;;24.35;40.89;97368.94;5041927;28;20441;-68
2022/07/27 01:16:57;;;;;;;5.67;2.20;;;;;;;24.36;41.30;97364.41;5048963;28;20491;-68
2022/07/27 01:19:22;;;;;;;4.33;2.20;;;;;;;24.29;40.94;97363.72;5058495;28;20274;-68
2022/07/27 01:21:48;;;;;;;3.40;2.30;;;;;;;24.19;41.03;97356.31;5063108;28;20183;-68
2022/07/27 01:24:13;;;;;;;2.63;1.83;;;;;;;24.11;41.52;97359.34;5056519;28;20344;-67
2022/07/27 01:26:39;;;;;;;3.20;2.10;;;;;;;24.05;41.77;97361.94;5056334;28;20186;-67
2022/07/27 01:29:04;;;;;;;3.93;1.90;;;;;;;23.99;41.77;97354.84;5038700;28;20715;-69
2022/07/27 01:31:30;;;;;;;2.73;1.87;;;;;;;23.98;42.32;97355.06;5057724;28;20252;-68
2022/07/27 01:33:57;;;;;;;3.70;2.17;;;;;;;23.89;42.25;97357.25;5058997;28;20183;-68
2022/07/27 01:36:22;;;;;;;3.47;1.80;;;;;;;23.95;42.30;97358.19;5062087;28;20209;-68
2022/07/27 01:38:48;;;;;;;2.40;2.10;;;;;;;23.88;41.85;97352.97;5060033;28;20437;-68
2022/07/27 01:41:13;;;;;;;4.80;2.13;;;;;;;23.76;42.29;97351.13;5056730;28;20320;-68
2022/07/27 01:43:39;;;;;;;4.33;2.53;;;;;;;23.79;42.43;97349.81;5061561;28;20217;-68
2022/07/27 01:46:05;;;;;;;2.20;2.10;;;;;;;23.77;42.27;97347.38;5058378;28;20190;-68
2022/07/27 01:48:30;;;;;;;2.07;1.87;;;;;;;23.75;42.31;97346.00;5055702;28;20445;-67
2022/07/27 01:50:56;;;;;;;5.00;2.33;;;;;;;23.64;42.76;97342.28;5055696;28;20190;-67
2022/07/27 01:53:22;;;;;;;4.20;2.30;;;;;;;23.62;42.78;97342.53;5036974;28;20237;-67
2022/07/27 01:55:48;;;;;;;3.50;2.83;;;;;;;23.61;42.88;97334.72;5056867;28;20199;-67
2022/07/27 01:58:14;;;;;;;3.43;2.40;;;;;;;23.63;42.87;97341.44;5057839;28;20210;-67
2022/07/27 02:00:40;;;;;;;2.10;2.00;;;;;;;23.68;42.71;97338.09;5059485;28;20757;-67
2022/07/27 02:03:07;;;;;;;2.97;2.50;;;;;;;23.71;42.80;97334.13;5052995;28;20228;-68
2022/07/27 02:05:32;;;;;;;10.83;2.40;;;;;;;23.69;42.65;97322.84;5055605;28;20934;-68
2022/07/27 02:07:58;;;;;;;3.83;1.90;;;;;;;23.62;43.22;97328.31;5057824;28;20444;-68
2022/07/27 02:10:23;;;;;;;2.40;1.97;;;;;;;23.60;43.57;97325.06;5061180;28;20197;-68
2022/07/27 02:12:50;;;;;;;4.67;2.30;;;;;;;23.50;43.61;97319.50;5058260;28;20187;-67
2022/07/27 02:15:19;;;;;;;3.70;2.10;;;;;;;23.44;43.84;97322.03;5058781;28;20195;-67
2022/07/27 02:17:45;;;;;;;2.87;2.57;;;;;;;23.42;43.69;97320.66;5056080;28;20440;-68
2022/07/27 02:20:13;;;;;;;3.10;2.13;;;;;;;23.33;43.82;97333.53;5056710;28;20419;-67
2022/07/27 02:22:38;;;;;;;4.27;2.30;;;;;;;23.26;43.99;97324.81;5056405;28;20929;-68
2022/07/27 02:25:05;;;;;;;4.43;2.37;;;;;;;23.13;43.98;97332.00;5057725;28;20421;-68
2022/07/27 02:27:30;;;;;;;2.60;2.10;;;;;;;23.09;44.46;97328.13;5061714;28;20226;-68
2022/07/27 02:29:56;;;;;;;4.73;2.27;;;;;;;23.11;44.72;97327.94;5057383;28;20442;-67
2022/07/27 02:32:22;;;;;;;4.17;2.43;;;;;;;23.15;44.29;97329.91;5057849;28;20192;-67
2022/07/27 02:34:48;;;;;;;2.57;2.37;;;;;;;23.03;44.46;97326.41;5059813;28;20467;-68
2022/07/27 02:37:13;;;;;;;4.97;2.70;;;;;;;23.01;44.71;97323.94;5061743;28;20272;-68
2022/07/27 02:39:39;;;;;;;2.63;2.30;;;;;;;22.99;44.69;97335.91;5058037;28;20189;-68
2022/07/27 02:42:04;;;;;;;4.37;2.60;;;;;;;23.03;44.71;97326.41;5051446;28;20206;-69
2022/07/27 02:44:30;;;;;;;4.40;2.80;;;;;;;22.89;44.98;97327.66;5045238;28;20270;-68
2022/07/27 02:46:55;;;;;;;3.00;2.33;;;;;;;22.96;44.95;97331.84;5053166;28;20174;-67
2022/07/27 02:49:21;;;;;;;3.50;2.70;;;;;;;22.96;44.90;97331.84;5055729;28;20213;-68
2022/07/27 02:51:50;;;;;;;3.27;2.67;;;;;;;23.04;44.78;97335.22;5055014;28;20179;-68
2022/07/27 02:54:17;;;;;;;3.37;2.50;;;;;;;23.03;45.08;97337.09;5061078;28;20216;-67
2022/07/27 02:56:43;;;;;;;7.17;2.47;;;;;;;23.06;44.98;97333.13;5040974;28;20460;-68
2022/07/27 02:59:08;;;;;;;6.03;2.70;;;;;;;23.08;44.95;97336.41;5062414;28;20503;-68
2022/07/27 03:01:34;;;;;;;3.70;3.30;;;;;;;23.10;44.72;97337.78;5055979;28;20294;-68
2022/07/27 03:03:59;;;;;;;6.87;3.10;;;;;;;23.20;44.59;97333.75;5059062;28;20193;-68
2022/07/27 03:06:25;;;;;;;5.00;2.47;;;;;;;23.14;44.42;97338.97;5062745;28;20647;-68
2022/07/27 03:08:50;;;;;;;8.07;3.27;;;;;;;23.14;44.53;97333.63;5064356;28;20206;-69
2022/07/27 03:11:15;;;;;;;3.57;2.53;;;;;;;23.13;44.59;97331.16;5059056;28;20274;-68
2022/07/27 03:13:41;;;;;;;10.83;3.07;;;;;;;23.08;44.69;97334.53;5064317;28;20193;-69
2022/07/27 03:16:07;;;;;;;2.67;2.37;;;;;;;23.04;44.85;97328.03;5059980;28;20291;-68
2022/07/27 03:18:32;;;;;;;4.70;2.93;;;;;;;22.99;44.90;97330.56;5058718;28;20638;-70
2022/07/27 03:20:58;;;;;;;2.90;2.40;;;;;;;22.96;45.19;97326.50;5057146;28;20175;-69
2022/07/27 03:23:23;;;;;;;2.97;2.53;;;;;;;23.03;45.04;97337.09;5042305;28;20201;-69
2022/07/27 03:25:49;;;;;;;4.50;3.00;;;;;;;22.98;44.92;97331.59;5060773;28;20240;-68
2022/07/27 03:28:14;;;;;;;4.57;2.53;;;;;;;22.96;44.89;97333.69;5064406;28;20662;-69
2022/07/27 03:30:40;;;;;;;3.77;2.63;;;;;;;22.96;45.00;97339.03;5064656;28;20187;-69
2022/07/27 03:33:05;;;;;;;6.80;2.80;;;;;;;22.98;44.96;97342.28;5057913;28;20190;-68
2022/07/27 03:35:31;;;;;;;3.67;2.63;;;;;;;22.99;45.00;97338.59;5053080;28;20218;-69
2022/07/27 03:37:56;;;;;;;4.53;2.47;;;;;;;22.92;45.25;97335.22;5062616;28;20222;-68
2022/07/27 03:40:22;;;;;;;4.60;2.63;;;;;;;22.99;45.35;97335.91;5025320;28;20193;-68
2022/07/27 03:42:47;;;;;;;3.37;2.53;;;;;;;23.04;45.28;97325.34;5053950;28;20233;-67
2022/07/27 03:45:13;;;;;;;4.00;2.67;;;;;;;23.05;45.11;97323.50;5061141;28;20183;-68
2022/07/27 03:47:38;;;;;;;5.40;2.67;;;;;;;23.01;45.05;97331.16;5055674;28;20305;-68
2022/07/27 03:50:04;;;;;;;6.23;2.93;;;;;;;23.02;45.10;97335.47;5053809;28;20589;-68
2022/07/27 03:52:29;;;;;;;3.47;3.17;;;;;;;22.96;45.40;97339.03;5057454;28;20198;-70
2022/07/27 03:54:56;;;;;;;5.10;2.97;;;;;;;22.88;45.76;97342.84;5039801;28;20219;-68
2022/07/27 03:57:22;;;;;;;4.13;2.97;;;;;;;22.91;45.42;97344.25;5060558;28;20218;-68
2022/07/27 03:59:48;;;;;;;5.77;3.10;;;;;;;22.91;45.42;97344.25;5065600;28;20524;-69
2022/07/27 04:02:13;;;;;;;4.33;3.70;;;;;;;22.84;46.00;97339.81;5060971;28;21163;-67
2022/07/27 04:04:39;;;;;;;6.43;5.23;;;;;;;22.82;46.31;97347.25;5057681;28;20190;-68
2022/07/27 04:07:05;;;;;;;4.90;3.20;;;;;;;22.82;45.67;97349.91;5057064;28;20199;-68
2022/07/27 04:09:30;;;;;;;3.33;3.10;;;;;;;22.77;45.53;97344.47;5058749;28;20178;-68
2022/07/27 04:11:56;;;;;;;5.53;4.50;;;;;;;22.78;45.70;97343.41;5062472;28;20241;-68
2022/07/27 04:14:21;;;;;;;4.67;3.40;;;;;;;22.74;45.54;97341.44;5055329;28;20182;-69
2022/07/27 04:16:46;;;;;;;5.70;3.20;;;;;;;22.74;45.80;97344.91;5062020;28;20206;-68
2022/07/27 04:19:12;;;;;;;3.63;3.10;;;;;;;22.74;45.90;97344.09;5059204;28;20188;-68
2022/07/27 04:21:38;;;;;;;7.20;3.40;;;;;;;22.73;46.14;97350.50;5037370;28;20175;-69
2022/07/27 04:24:04;;;;;;;12.13;3.40;;;;;;;22.74;46.25;97360.13;5057861;28;20651;-68
2022/07/27 04:26:30;;;;;;;5.83;3.67;;;;;;;22.74;46.23;97357.47;5053840;28;20481;-69
2022/07/27 04:28:56;;;;;;;2.93;2.63;;;;;;;22.75;46.54;97356.38;5052207;28;20442;-68
2022/07/27 04:31:22;;;;;;;5.03;4.10;;;;;;;22.74;46.22;97360.13;5067933;28;20631;-68
2022/07/27 04:33:47;;;;;;;4.33;3.27;;;;;;;22.70;46.42;97357.91;5066417;28;20276;-69
2022/07/27 04:36:13;;;;;;;4.63;3.20;;;;;;;22.76;46.76;97358.84;5061849;28;20628;-69
2022/07/27 04:38:38;;;;;;;5.80;3.30;;;;;;;22.81;46.60;97364.31;5053455;28;20202;-70
2022/07/27 04:41:04;;;;;;;5.80;3.07;;;;;;;22.89;46.43;97370.38;5055682;28;22736;-69
2022/07/27 04:43:29;;;;;;;3.63;3.13;;;;;;;;;;5066604;28;20187;-68
2022/07/27 04:45:55;;;;;;;4.57;2.80;;;;;;;22.95;45.98;97361.44;5056989;28;20180;-69
2022/07/27 04:48:20;;;;;;;3.33;2.87;;;;;;;22.96;45.94;97358.56;5062559;28;20210;-68
2022/07/27 04:50:46;;;;;;;5.10;3.60;;;;;;;23.00;46.13;97364.25;5035091;28;20182;-69
2022/07/27 04:53:13;;;;;;;3.77;3.20;;;;;;;23.00;46.22;97364.25;5055551;28;20179;-69
2022/07/27 04:55:45;;;;;;;3.37;3.07;;;;;;;22.99;46.25;97365.31;5067970;28;20178;-69
2022/07/27 04:58:11;;;;;;;3.53;3.10;;;;;;;23.02;46.05;97362.97;5053078;28;20484;-69
2022/07/27 05:00:37;;;;;;;8.53;3.10;;;;;;;23.04;46.21;97361.94;5058230;28;20467;-70
2022/07/27 05:03:03;;;;;;;3.70;3.40;;;;;;;23.06;46.05;97363.34;5063095;28;20418;-69
2022/07/27 05:05:28;;;;;;;3.27;2.97;;;;;;;23.07;45.82;97370.31;5065289;28;20262;-69
2022/07/27 05:07:53;;;;;;;4.67;3.07;;;;;;;23.06;46.15;97376.69;5055022;28;20677;-69
2022/07/27 05:10:19;;;;;;;7.37;2.90;;;;;;;23.09;46.36;97392.28;5064773;28;20190;-68
2022/07/27 05:12:45;;;;;;;8.23;3.10;;;;;;;23.11;46.29;97387.53;5062921;28;20240;-70
2022/07/27 05:15:10;;;;;;;3.50;2.97;;;;;;;23.09;46.42;97381.59;5054772;28;20187;-69
2022/07/27 05:17:36;;;;;;;5.23;3.20;;;;;;;23.10;46.07;97383.22;5057615;28;20214;-70
2022/07/27 05:20:02;;;;;;;3.23;2.80;;;;;;;23.13;46.44;97387.28;5021902;28;20527;-70
2022/07/27 05:22:28;;;;;;;5.67;3.10;;;;;;;23.14;46.40;97389.75;5055892;28;20223;-71
2022/07/27 05:24:53;;;;;;;3.97;3.37;;;;;;;23.16;46.25;97394.84;5055693;28;20892;-70
2022/07/27 05:27:18;;;;;;;4.17;3.77;;;;;;;23.19;46.20;97397.06;5052393;28;20361;-70
2022/07/27 05:29:44;;;;;;;7.53;3.73;;;;;;;23.23;46.29;97400.13;5060917;28;20176;-70
2022/07/27 05:32:09;;;;;;;7.53;3.30;;;;;;;23.28;46.15;97393.06;5058913;28;20217;-70
2022/07/27 05:34:35;;;;;;;4.97;3.40;;;;;;;23.29;45.95;97399.22;5059351;28;20340;-70
2022/07/27 05:37:00;;;;;;;5.60;3.60;;;;;;;23.33;46.14;97403.06;5062508;28;20235;-70
2022/07/27 05:39:26;;;;;;;4.53;3.90;;;;;;;23.35;46.00;97392.94;5045401;28;20179;-69
2022/07/27 05:41:51;;;;;;;3.40;3.00;;;;;;;23.19;46.04;97396.28;5053739;28;20218;-68
2022/07/27 05:44:17;;;;;;;3.33;2.93;;;;;;;23.28;45.78;97401.06;5051541;28;20193;-69
2022/07/27 05:46:42;;;;;;;8.27;3.73;;;;;;;23.39;45.63;97396.81;5064838;28;20653;-69
2022/07/27 05:49:08;;;;;;;5.43;3.17;;;;;;;23.43;45.74;97400.66;5061550;28;20202;-69
2022/07/27 05:51:33;;;;;;;3.87;2.80;;;;;;;23.42;45.65;97400.88;5074784;28;20182;-69
2022/07/27 05:53:59;;;;;;;3.50;3.20;;;;;;;23.36;45.63;97399.13;5070486;28;20182;-69
2022/07/27 05:56:24;;;;;;;3.70;3.40;;;;;;;23.29;46.00;97407.25;5069656;28;20207;-70
2022/07/27 05:58:50;;;;;;;5.40;3.10;;;;;;;23.24;46.13;97412.47;5061990;28;20290;-70
2022/07/27 06:01:15;;;;;;;4.03;3.50;;;;;;;23.12;46.57;97418.56;5064038;28;20626;-69
2022/07/27 06:03:41;;;;;;;6.50;3.40;;;;;;;23.15;46.33;97426.13;5057339;28;20189;-69
2022/07/27 06:08:50;;;;;;;6.37;3.17;;;;;;;23.15;46.66;97423.47;5068154;28;20201;-69
2022/07/27 06:11:16;;;;;;;4.60;3.80;;;;;;;23.16;46.55;97430.44;5056442;28;20425;-70
2022/07/27 06:13:42;;;;;;;4.00;3.50;;;;;;;23.11;46.80;97424.94;5058345;28;20190;-69
2022/07/27 06:16:08;;;;;;;5.00;3.33;;;;;;;23.08;46.59;97420.03;5055956;28;20210;-69
2022/07/27 06:18:33;;;;;;;4.73;3.53;;;;;;;23.11;46.91;97424.16;5062358;28;20277;-68
2022/07/27 06:21:00;;;;;;;6.10;3.70;;;;;;;23.14;46.84;97432.50;5037030;28;20472;-68
2022/07/27 06:23:26;;;;;;;3.90;3.30;;;;;;;23.14;46.86;97419.16;5064523;28;20193;-69
2022/07/27 06:25:52;;;;;;;4.47;3.97;;;;;;;23.23;46.73;97430.38;5060435;28;20474;-68
2022/07/27 06:28:18;;;;;;;4.20;3.30;;;;;;;23.34;46.70;97433.28;5055629;28;20942;-68
2022/07/27 06:30:44;;;;;;;12.13;3.17;;;;;;;23.42;46.60;97435.63;5073265;28;20658;-68
2022/07/27 06:33:09;;;;;;;7.77;3.47;;;;;;;23.54;45.82;97435.66;5058735;28;20182;-68
2022/07/27 06:35:35;;;;;;;4.40;3.40;;;;;;;23.64;45.94;97441.25;5065202;28;20444;-68
2022/07/27 06:38:01;;;;;;;4.30;3.90;;;;;;;23.69;45.92;97449.38;5071968;28;20206;-69
2022/07/27 06:40:27;;;;;;;4.00;3.60;;;;;;;23.76;45.54;97442.06;5042446;28;20660;-69
2022/07/27 06:42:53;;;;;;;7.47;3.50;;;;;;;23.78;45.79;97445.34;5068245;28;20432;-69
2022/07/27 06:45:18;;;;;;;7.10;3.53;;;;;;;23.87;45.65;97443.13;5072285;28;20185;-69
2022/07/27 06:47:44;;;;;;;6.40;3.33;;;;;;;23.91;45.35;97443.47;5080803;28;20202;-70
2022/07/27 06:50:10;;;;;;;5.20;3.50;;;;;;;24.00;45.38;97442.09;5083107;28;20174;-69
2022/07/27 06:52:35;;;;;;;6.53;3.40;;;;;;;24.09;45.15;97439.91;5087097;28;20207;-70
2022/07/27 06:55:00;;;;;;;5.63;3.63;;;;;;;24.20;44.91;97438.25;5082340;28;20227;-69
2022/07/27 06:57:26;;;;;;;4.07;3.63;;;;;;;24.34;44.58;97434.25;5067554;28;20211;-69
2022/07/27 06:59:52;;;;;;;11.33;3.53;;;;;;;24.39;44.34;97437.06;5086104;28;20202;-68
2022/07/27 07:02:18;;;;;;;4.20;3.53;;;;;;;24.48;44.02;97442.03;5080440;28;20190;-69
2022/07/27 07:04:44;;;;;;;5.80;3.83;;;;;;;24.56;43.84;97436.34;5084914;28;20420;-69
2022/07/27 07:07:09;;;;;;;3.60;3.30;;;;;;;24.64;43.67;97435.94;5081225;28;20998;-69
2022/07/27 07:09:35;;;;;;;3.60;3.10;;;;;;;24.74;43.63;97434.53;5086372;28;20255;-69
2022/07/27 07:12:01;;;;;;;6.00;3.30;;;;;;;24.79;43.65;97431.97;5079985;28;20272;-68
2022/07/27 07:14:26;;;;;;;7.77;3.37;;;;;;;24.84;43.43;97437.41;5078821;28;20183;-69
2022/07/27 07:16:52;;;;;;;5.57;3.77;;;;;;;24.92;43.14;97438.91;5057410;28;20506;-69
2022/07/27 07:19:18;;;;;;;5.53;3.37;;;;;;;24.94;43.43;97437.63;5075741;28;20195;-68
2022/07/27 07:21:43;;;;;;;4.70;3.30;;;;;;;24.98;42.98;97429.91;5083065;28;20254;-69
2022/07/27 07:24:09;;;;;;;3.50;3.30;;;;;;;25.02;43.02;97430.25;5080144;28;20659;-69
2022/07/27 07:26:35;;;;;;;5.87;4.07;;;;;;;24.99;42.81;97427.00;5077227;28;20179;-71
2022/07/27 07:29:00;;;;;;;3.40;3.10;;;;;;;25.00;43.02;97423.25;5084613;28;20213;-69
2022/07/27 07:31:26;;;;;;;3.70;2.97;;;;;;;25.05;42.68;97429.78;5082047;28;20211;-69
2022/07/27 07:33:52;;;;;;;4.27;3.23;;;;;;;25.09;43.12;97426.38;5084931;28;20649;-71
2022/07/27 07:36:17;;;;;;;5.60;2.90;;;;;;;25.21;42.74;97425.50;5076069;28;20217;-69
2022/07/27 07:38:43;;;;;;;4.80;3.10;;;;;;;25.30;42.75;97421.34;5081855;28;20206;-68
2022/07/27 07:41:09;;;;;;;3.00;2.80;;;;;;;25.38;42.64;97425.50;5075304;28;20207;-68
2022/07/27 07:43:35;;;;;;;8.20;4.30;;;;;;;25.36;42.26;97423.06;5078268;28;20189;-68
2022/07/27 07:46:01;;;;;;;4.10;3.30;;;;;;;25.36;41.68;97423.06;5086193;28;20491;-68
2022/07/27 07:48:26;;;;;;;4.27;2.90;;;;;;;25.34;41.99;97427.03;5076855;28;20594;-68
2022/07/27 07:50:52;;;;;;;4.83;3.60;;;;;;;25.33;42.20;97422.75;5079634;28;20982;-69
2022/07/27 07:53:18;;;;;;;5.67;3.20;;;;;;;25.32;42.00;97419.25;5083869;28;20396;-69
2022/07/27 07:55:44;;;;;;;4.10;3.40;;;;;;;25.30;42.18;97416.81;5075697;28;20182;-68
2022/07/27 07:58:09;;;;;;;6.17;3.20;;;;;;;25.36;41.85;97424.94;5064858;28;20986;-68
2022/07/27 08:00:34;;;;;;;3.40;3.10;;;;;;;25.38;42.04;97420.13;5062426;28;20640;-68
2022/07/27 08:03:00;;;;;;;3.30;3.10;;;;;;;25.42;41.97;97415.97;5055873;28;20250;-68
2022/07/27 08:05:26;;;;;;;5.67;3.20;;;;;;;25.45;41.97;97428.88;5059097;28;20281;-69
2022/07/27 08:07:52;;;;;;;6.40;3.80;;;;;;;25.37;41.92;97437.28;5055836;28;20290;-69
2022/07/27 08:10:19;;;;;;;5.57;3.37;;;;;;;25.37;42.02;97434.59;5058597;28;20186;-68
2022/07/27 08:12:48;;;;;;;3.47;3.17;;;;;;;25.39;41.91;97435.19;5058773;28;20922;-68
2022/07/27 08:15:15;;;;;;;3.43;3.13;;;;;;;25.41;42.32;97435.78;5042083;28;21069;-69
2022/07/27 08:17:41;;;;;;;4.00;3.20;;;;;;;25.39;41.62;97440.53;5059893;28;20462;-69
2022/07/27 08:20:08;;;;;;;4.03;3.50;;;;;;;25.45;41.54;97439.63;5055065;28;20416;-69
2022/07/27 08:22:34;;;;;;;5.93;3.43;;;;;;;25.51;41.98;97448.56;5063540;28;20422;-70
2022/07/27 08:25:00;;;;;;;7.33;3.40;;;;;;;25.57;41.44;97437.66;5054217;28;20426;-69
2022/07/27 08:27:26;;;;;;;6.47;3.33;;;;;;;25.73;41.82;97441.41;5056698;28;20496;-69
2022/07/27 08:29:51;;;;;;;4.17;3.20;;;;;;;25.91;41.91;97442.19;5064849;28;20460;-69
2022/07/27 08:32:16;;;;;;;3.20;2.90;;;;;;;26.05;41.06;97437.31;5064177;28;20190;-68
2022/07/27 08:34:42;;;;;;;3.60;3.30;;;;;;;26.15;39.91;97436.66;5040294;28;20195;-70
2022/07/27 08:37:07;;;;;;;5.27;3.17;;;;;;;26.31;39.79;97429.63;5055604;28;20253;-68
2022/07/27 08:39:33;;;;;;;6.57;3.10;;;;;;;26.43;39.75;97430.31;5059846;28;20179;-69
2022/07/27 08:42:03;;;;;;;4.27;3.17;;;;;;;26.48;39.66;97435.72;5054026;28;20189;-69
2022/07/27 08:44:28;;;;;;;8.40;3.90;;;;;;;26.46;39.29;97440.56;5061350;28;20688;-69
2022/07/27 08:46:55;;;;;;;4.93;3.20;;;;;;;26.45;40.04;97432.75;5056382;28;20455;-69
2022/07/27 08:49:22;;;;;;;3.47;3.20;;;;;;;26.68;39.32;97442.44;5067735;28;20236;-70
2022/07/27 08:51:48;;;;;;;5.83;3.40;;;;;;;26.78;38.85;97439.88;5052024;28;20422;-69
2022/07/27 08:54:14;;;;;;;7.30;3.50;;;;;;;26.93;39.04;97435.75;5053112;28;20461;-68
2022/07/27 08:56:40;;;;;;;4.87;3.03;;;;;;;27.07;38.94;97436.16;5058737;28;20453;-69
2022/07/27 08:59:06;;;;;;;3.97;3.17;;;;;;;27.13;38.80;97440.53;5056157;28;20441;-70
2022/07/27 09:01:34;;;;;;;4.30;3.00;;;;;;;27.18;38.50;97429.00;5065097;28;20280;-69
2022/07/27 09:04:00;;;;;;;5.73;2.87;;;;;;;27.34;38.54;97428.06;5068564;28;20218;-68
2022/07/27 09:06:46;;;;;;;3.93;3.40;;;;;;;27.46;37.83;97430.63;5050981;28;20507;-68
2022/07/27 09:09:12;;;;;;;3.50;3.17;;;;;;;27.66;37.50;97431.84;5059190;28;20197;-69
2022/07/27 09:11:38;;;;;;;3.53;3.23;;;;;;;27.82;37.46;97435.47;5064468;28;20422;-69
2022/07/27 09:14:06;;;;;;;3.83;2.57;;;;;;;27.94;37.56;97436.09;5040310;28;20439;-70
2022/07/27 09:16:32;;;;;;;8.93;3.20;;;;;;;28.01;37.13;97428.56;5068545;28;20206;-69
2022/07/27 09:19:00;;;;;;;3.63;2.53;;;;;;;28.11;37.42;97429.72;5056384;28;20448;-69
2022/07/27 09:21:25;;;;;;;6.40;2.97;;;;;;;28.20;36.37;97434.38;5043923;28;20429;-68
2022/07/27 09:23:57;;;;;;;3.60;3.00;;;;;;;28.26;36.14;97431.72;5062533;28;20432;-70
2022/07/27 09:26:28;;;;;;;4.37;3.17;;;;;;;28.25;36.23;97432.78;5058572;28;20679;-71
2022/07/27 09:29:12;;;;;;;5.23;3.20;;;;;;;28.35;36.57;97432.84;5069781;28;20485;-68
2022/07/27 09:31:46;;;;;;;2.80;2.60;;;;;;;28.47;36.54;97432.63;5062010;28;20497;-69
2022/07/27 09:34:25;;;;;;;5.70;3.33;;;;;;;28.42;36.01;97435.28;5065651;28;20452;-68
2022/07/27 09:36:52;;;;;;;7.50;3.20;;;;;;;28.20;36.29;97445.16;5047027;28;20819;-68
2022/07/27 09:39:19;;;;;;;3.90;3.40;;;;;;;28.00;36.74;97442.31;5062979;28;20443;-67
2022/07/27 09:41:45;;;;;;;5.10;3.30;;;;;;;27.89;36.93;97444.94;5053087;28;20514;-70
2022/07/27 09:44:11;;;;;;;4.53;3.10;;;;;;;27.84;37.22;97450.28;5067889;28;20413;-68
2022/07/27 09:46:39;;;;;;;4.00;3.03;;;;;;;27.74;37.46;97451.00;5033407;28;20424;-68
2022/07/27 09:49:05;;;;;;;5.03;2.93;;;;;;;27.72;37.31;97444.28;5057588;28;20243;-68
2022/07/27 09:51:31;;;;;;;11.80;3.90;;;;;;;27.71;37.83;97462.31;5050854;28;21195;-68
2022/07/27 09:53:59;;;;;;;4.90;3.43;;;;;;;27.86;37.35;97452.72;5042776;28;20432;-70
2022/07/27 09:56:29;;;;;;;5.60;2.87;;;;;;;27.89;37.27;97446.81;5038575;28;20476;-68
2022/07/27 09:58:57;;;;;;;8.20;3.10;;;;;;;28.01;37.57;97450.13;5069426;28;20444;-69
2022/07/27 10:01:25;;;;;;;4.23;2.60;;;;;;;28.20;37.03;97453.22;5060904;28;20426;-68
2022/07/27 10:03:57;;;;;;;3.30;3.00;;;;;;;28.43;36.20;97445.00;5065997;28;20429;-68
2022/07/27 10:06:24;;;;;;;4.47;2.73;;;;;;;28.72;35.82;97444.56;5058037;28;20416;-69
2022/07/27 10:08:51;;;;;;;3.20;2.90;;;;;;;28.83;35.46;97446.25;5048282;28;20967;-71
2022/07/27 10:11:18;;;;;;;4.67;2.90;;;;;;;28.85;35.46;97448.69;5054829;28;20451;-69
2022/07/27 10:13:44;;;;;;;4.20;3.00;;;;;;;28.74;35.01;97456.75;5061479;28;20487;-70
2022/07/27 10:16:16;;;;;;;6.60;4.03;;;;;;;28.99;34.21;97457.06;5058278;28;20456;-70
2022/07/27 10:18:57;;;;;;;7.43;3.20;;;;;;;29.09;34.16;97451.72;5071833;28;21028;-69
2022/07/27 10:21:24;;;;;;;7.83;3.10;;;;;;;29.29;34.33;97450.94;5046106;28;20507;-68
2022/07/27 10:23:53;;;;;;;4.43;2.40;;;;;;;29.52;34.13;97443.41;5066864;28;20424;-69
2022/07/27 10:26:23;;;;;;;4.67;2.63;;;;;;;29.81;33.90;97446.38;5067285;28;20495;-69
2022/07/27 10:28:57;;;;;;;3.47;2.60;;;;;;;30.08;33.40;97442.56;5067535;28;20470;-68
2022/07/27 10:31:25;;;;;;;4.33;2.97;;;;;;;30.30;32.26;97431.44;5073242;28;20436;-68
2022/07/27 10:33:53;;;;;;;4.00;3.10;;;;;;;30.39;32.21;97445.19;5071222;28;20436;-70
2022/07/27 10:36:21;;;;;;;6.13;3.20;;;;;;;30.42;32.30;97441.13;5068357;28;20461;-67
2022/07/27 10:38:50;;;;;;;5.70;3.50;;;;;;;30.22;31.97;97440.09;5060020;28;20453;-68
2022/07/27 10:41:27;;;;;;;7.73;3.60;;;;;;;30.05;32.17;97447.72;5066207;28;20947;-67
2022/07/27 10:44:17;;;;;;;4.03;2.87;;;;;;;29.80;32.03;97452.06;5050084;28;20431;-68
2022/07/27 10:47:02;;;;;;;4.57;2.87;;;;;;;29.62;32.34;97440.72;5067301;28;20931;-70
2022/07/27 10:49:33;;;;;;;7.33;3.10;;;;;;;29.52;32.44;97448.81;5067209;28;20420;-69
2022/07/27 10:52:00;;;;;;;3.30;3.00;;;;;;;29.62;32.39;97446.13;5046332;28;20430;-69
2022/07/27 10:54:32;;;;;;;2.90;2.60;;;;;;;29.99;32.40;97439.63;5061723;28;20425;-67
2022/07/27 10:56:59;;;;;;;6.07;2.80;;;;;;;30.12;32.32;97432.03;5055866;28;20468;-69
2022/07/27 10:59:36;;;;;;;5.00;3.00;;;;;;;30.44;31.95;97428.94;5033659;28;20441;-69
2022/07/27 11:02:03;;;;;;;2.60;2.40;;;;;;;30.67;31.06;97421.31;5064129;28;20420;-68
2022/07/27 11:04:30;;;;;;;2.90;2.30;;;;;;;30.79;31.04;97421.78;5056491;28;20425;-69
2022/07/27 11:06:56;;;;;;;5.83;2.53;;;;;;;30.82;30.22;97428.50;5055735;28;20791;-69
2022/07/27 11:09:22;;;;;;;4.40;2.20;;;;;;;30.82;30.04;97425.03;5057114;28;20424;-68
2022/07/27 11:11:48;;;;;;;2.40;2.20;;;;;;;30.84;29.86;97412.03;5058006;28;20471;-69
2022/07/27 11:14:14;;;;;;;2.50;2.20;;;;;;;30.83;30.30;97426.63;5061328;28;20186;-69
2022/07/27 11:16:39;;;;;;;5.63;3.00;;;;;;;30.78;30.16;97419.38;5043106;28;20876;-70
2022/07/27 11:19:06;;;;;;;3.93;2.60;;;;;;;30.61;30.60;97417.03;5044213;28;20224;-66
2022/07/27 11:21:36;;;;;;;6.70;2.37;;;;;;;30.58;30.57;97414.88;5060398;28;20191;-69
2022/07/27 11:24:02;;;;;;;2.30;2.10;;;;;;;30.52;30.77;97415.94;5054201;28;20439;-70
2022/07/27 11:26:29;;;;;;;2.93;2.50;;;;;;;30.43;30.63;97411.13;5065742;28;20452;-68
2022/07/27 11:28:55;;;;;;;3.27;2.50;;;;;;;30.24;30.75;97415.53;5056745;28;20856;-68
2022/07/27 11:31:21;;;;;;;4.50;2.30;;;;;;;30.27;30.86;97415.78;5058698;28;20429;-69
2022/07/27 11:33:56;;;;;;;3.23;2.30;;;;;;;30.58;30.67;97414.88;5063542;28;20198;-68
2022/07/27 11:36:24;;;;;;;3.40;2.10;;;;;;;30.81;29.49;97418.81;5059919;28;20209;-68